sensor_id;sensor_type;location;lat;lon;timestamp;temperature;humidity
1704;DHT22;849;48.780;9.216;2022-07-30T00:01:29;20.20;99.90
1704;DHT22;849;48.780;9.216;2022-07-30T00:03:55;20.00;99.90
1704;DHT22;849;48.780;9.216;2022-07-30T00:06:20;20.00;99.90
1704;DHT22;849;48.780;9.216;2022-07-30T00:08:46;20.10;99.90
1704;DHT22;849;48.780;9.216;2022-07-30T00:11:12;20.10;99.90
1704;DHT22;849;48.780;9.216;2022-07-30T00:13:39;20.20;99.90
1704;DHT22;849;48.780;9.216;2022-07-30T00:16:05;20.20;99.90
1704;DHT22;849;48.780;9.216;2022-07-30T00:18:32;20.30;99.90
1704;DHT22;849;48.780;9.216;2022-07-30T00:20:57;20.40;99.90
1704;DHT22;849;48.780;9.216;2022-07-30T00:23:23;20.60;99.90
1704;DHT22;849;48.780;9.216;2022-07-30T00:25:48;20.50;99.90
1704;DHT22;849;48.780;9.216;2022-07-30T00:28:14;20.50;99.90
1704;DHT22;849;48.780;9.216;2022-07-30T00:30:40;20.70;99.90
1704;DHT22;849;48.780;9.216;2022-07-30T00:33:05;20.70;99.90
1704;DHT22;849;48.780;9.216;2022-07-30T00:35:32;20.60;99.90
1704;DHT22;849;48.780;9.216;2022-07-30T00:37:57;20.70;99.90
1704;DHT22;849;48.780;9.216;2022-07-30T00:40:23;20.70;99.90
1704;DHT22;849;48.780;9.216;2022-07-30T00:42:49;20.90;99.90
1704;DHT22;849;48.780;9.216;2022-07-30T00:45:16;21.00;99.90
1704;DHT22;849;48.780;9.216;2022-07-30T00:47:42;20.80;99.90
1704;DHT22;849;48.780;9.216;2022-07-30T00:50:09;20.50;99.90
1704;DHT22;849;48.780;9.216;2022-07-30T00:52:36;20.70;99.90
1704;DHT22;849;48.780;9.216;2022-07-30T00:55:04;21.00;99.90
1704;DHT22;849;48.780;9.216;2022-07-30T00:57:30;21.20;99.90
1704;DHT22;849;48.780;9.216;2022-07-30T00:59:57;21.30;99.90
1704;DHT22;849;48.780;9.216;2022-07-30T01:02:23;21.30;99.90
1704;DHT22;849;48.780;9.216;2022-07-30T01:04:48;21.20;99.90
1704;DHT22;849;48.780;9.216;2022-07-30T01:07:14;21.10;99.90
1704;DHT22;849;48.780;9.216;2022-07-30T01:09:40;21.10;99.90
1704;DHT22;849;48.780;9.216;2022-07-30T01:12:07;20.90;99.90
1704;DHT22;849;48.780;9.216;2022-07-30T01:14:34;20.80;99.90
1704;DHT22;849;48.780;9.216;2022-07-30T01:17:02;21.00;99.90
1704;DHT22;849;48.780;9.216;2022-07-30T01:19:36;21.10;99.90
1704;DHT22;849;48.780;9.216;2022-07-30T01:22:38;21.10;99.90
1704;DHT22;849;48.780;9.216;2022-07-30T01:27:56;21.10;99.90
1704;DHT22;849;48.780;9.216;2022-07-30T01:30:25;21.20;99.90
1704;DHT22;849;48.780;9.216;2022-07-30T01:32:53;21.10;99.90
1704;DHT22;849;48.780;9.216;2022-07-30T01:35:21;21.10;99.90
1704;DHT22;849;48.780;9.216;2022-07-30T01:37:48;21.00;99.90
1704;DHT22;849;48.780;9.216;2022-07-30T01:40:15;20.90;99.90
1704;DHT22;849;48.780;9.216;2022-07-30T01:42:42;20.60;99.90
1704;DHT22;849;48.780;9.216;2022-07-30T01:45:10;20.80;99.90
1704;DHT22;849;48.780;9.216;2022-07-30T01:47:38;20.90;99.90
1704;DHT22;849;48.780;9.216;2022-07-30T01:50:06;20.80;99.90
1704;DHT22;849;48.780;9.216;2022-07-30T01:52:35;20.70;99.90
1704;DHT22;849;48.780;9.216;2022-07-30T01:55:02;20.60;99.90
1704;DHT22;849;48.780;9.216;2022-07-30T01:57:28;20.50;99.90
1704;DHT22;849;48.780;9.216;2022-07-30T02:00:00;20.30;99.90
1704;DHT22;849;48.780;9.216;2022-07-30T02:02:26;20.00;99.90
1704;DHT22;849;48.780;9.216;2022-07-30T02:04:52;20.10;99.90
1704;DHT22;849;48.780;9.216;2022-07-30T02:07:38;20.40;99.90
1704;DHT22;849;48.780;9.216;2022-07-30T02:10:13;20.60;99.90
1704;DHT22;849;48.780;9.216;2022-07-30T02:12:49;20.40;99.90
1704;DHT22;849;48.780;9.216;2022-07-30T02:15:24;20.60;99.90
1704;DHT22;849;48.780;9.216;2022-07-30T02:17:58;20.40;99.90
1704;DHT22;849;48.780;9.216;2022-07-30T02:20:27;20.30;99.90
1704;DHT22;849;48.780;9.216;2022-07-30T02:22:57;20.30;99.90
1704;DHT22;849;48.780;9.216;2022-07-30T02:25:25;20.30;99.90
1704;DHT22;849;48.780;9.216;2022-07-30T02:27:55;20.10;99.90
1704;DHT22;849;48.780;9.216;2022-07-30T02:30:24;20.30;99.90
1704;DHT22;849;48.780;9.216;2022-07-30T02:32:56;20.20;99.90
1704;DHT22;849;48.780;9.216;2022-07-30T02:35:23;20.10;99.90
1704;DHT22;849;48.780;9.216;2022-07-30T02:37:52;20.00;99.90
1704;DHT22;849;48.780;9.216;2022-07-30T02:40:19;20.10;99.90
1704;DHT22;849;48.780;9.216;2022-07-30T02:42:50;20.00;99.90
1704;DHT22;849;48.780;9.216;2022-07-30T02:45:16;20.00;99.90
1704;DHT22;849;48.780;9.216;2022-07-30T02:47:45;20.10;99.90
1704;DHT22;849;48.780;9.216;2022-07-30T02:50:12;20.10;99.90
1704;DHT22;849;48.780;9.216;2022-07-30T02:52:39;19.90;99.90
1704;DHT22;849;48.780;9.216;2022-07-30T02:55:07;20.00;99.90
1704;DHT22;849;48.780;9.216;2022-07-30T02:57:34;19.60;99.90
1704;DHT22;849;48.780;9.216;2022-07-30T03:00:03;19.50;99.90
1704;DHT22;849;48.780;9.216;2022-07-30T03:02:31;19.20;99.90
1704;DHT22;849;48.780;9.216;2022-07-30T03:04:59;19.30;99.90
1704;DHT22;849;48.780;9.216;2022-07-30T03:07:26;19.30;99.90
1704;DHT22;849;48.780;9.216;2022-07-30T03:09:55;19.30;99.90
1704;DHT22;849;48.780;9.216;2022-07-30T03:12:23;19.00;99.90
1704;DHT22;849;48.780;9.216;2022-07-30T03:14:49;19.10;99.90
1704;DHT22;849;48.780;9.216;2022-07-30T03:17:17;19.00;99.90
1704;DHT22;849;48.780;9.216;2022-07-30T03:19:44;19.20;99.90
1704;DHT22;849;48.780;9.216;2022-07-30T03:22:13;19.30;99.90
1704;DHT22;849;48.780;9.216;2022-07-30T03:24:42;19.00;99.90
1704;DHT22;849;48.780;9.216;2022-07-30T03:27:08;19.10;99.90
1704;DHT22;849;48.780;9.216;2022-07-30T03:29:36;18.80;99.90
1704;DHT22;849;48.780;9.216;2022-07-30T03:32:05;19.00;99.90
1704;DHT22;849;48.780;9.216;2022-07-30T03:34:32;19.00;99.90
1704;DHT22;849;48.780;9.216;2022-07-30T03:37:02;19.20;99.90
1704;DHT22;849;48.780;9.216;2022-07-30T03:39:32;19.20;99.90
1704;DHT22;849;48.780;9.216;2022-07-30T03:41:59;19.10;99.90
1704;DHT22;849;48.780;9.216;2022-07-30T03:44:25;19.20;99.90
1704;DHT22;849;48.780;9.216;2022-07-30T03:46:52;19.20;99.90
1704;DHT22;849;48.780;9.216;2022-07-30T03:49:20;19.10;99.90
1704;DHT22;849;48.780;9.216;2022-07-30T03:51:47;18.80;99.90
1704;DHT22;849;48.780;9.216;2022-07-30T03:54:14;18.70;99.90
1704;DHT22;849;48.780;9.216;2022-07-30T03:56:41;18.70;99.90
1704;DHT22;849;48.780;9.216;2022-07-30T03:59:07;19.00;99.90
1704;DHT22;849;48.780;9.216;2022-07-30T04:01:33;19.10;99.90
1704;DHT22;849;48.780;9.216;2022-07-30T04:04:09;19.20;99.90
1704;DHT22;849;48.780;9.216;2022-07-30T04:06:36;19.00;99.90
1704;DHT22;849;48.780;9.216;2022-07-30T04:09:09;19.20;99.90
1704;DHT22;849;48.780;9.216;2022-07-30T04:11:35;19.00;99.90
1704;DHT22;849;48.780;9.216;2022-07-30T04:14:01;19.10;99.90
1704;DHT22;849;48.780;9.216;2022-07-30T04:19:17;19.00;99.90
1704;DHT22;849;48.780;9.216;2022-07-30T04:21:45;19.10;99.90
1704;DHT22;849;48.780;9.216;2022-07-30T04:24:13;18.80;99.90
1704;DHT22;849;48.780;9.216;2022-07-30T04:26:40;18.90;99.90
1704;DHT22;849;48.780;9.216;2022-07-30T04:29:08;19.00;99.90
1704;DHT22;849;48.780;9.216;2022-07-30T04:31:35;19.10;99.90
1704;DHT22;849;48.780;9.216;2022-07-30T04:34:02;19.00;99.90
1704;DHT22;849;48.780;9.216;2022-07-30T04:36:29;19.00;99.90
1704;DHT22;849;48.780;9.216;2022-07-30T04:38:56;19.00;99.90
1704;DHT22;849;48.780;9.216;2022-07-30T04:41:21;19.10;99.90
1704;DHT22;849;48.780;9.216;2022-07-30T04:43:47;19.10;99.90
1704;DHT22;849;48.780;9.216;2022-07-30T04:46:13;19.10;99.90
1704;DHT22;849;48.780;9.216;2022-07-30T04:48:38;19.20;99.90
1704;DHT22;849;48.780;9.216;2022-07-30T04:51:17;19.30;99.90
1704;DHT22;849;48.780;9.216;2022-07-30T04:53:44;19.40;99.90
1704;DHT22;849;48.780;9.216;2022-07-30T04:56:12;19.50;99.90
1704;DHT22;849;48.780;9.216;2022-07-30T04:58:39;19.60;99.90
1704;DHT22;849;48.780;9.216;2022-07-30T05:01:06;19.50;99.90
1704;DHT22;849;48.780;9.216;2022-07-30T05:03:34;19.50;99.90
1704;DHT22;849;48.780;9.216;2022-07-30T05:06:00;19.20;99.90
1704;DHT22;849;48.780;9.216;2022-07-30T05:08:27;19.40;99.90
1704;DHT22;849;48.780;9.216;2022-07-30T05:10:53;19.50;99.90
1704;DHT22;849;48.780;9.216;2022-07-30T05:13:18;19.70;99.90
1704;DHT22;849;48.780;9.216;2022-07-30T05:15:44;19.70;99.90
1704;DHT22;849;48.780;9.216;2022-07-30T05:18:10;19.70;99.90
1704;DHT22;849;48.780;9.216;2022-07-30T05:20:36;19.80;99.90
1704;DHT22;849;48.780;9.216;2022-07-30T05:23:03;19.70;99.90
1704;DHT22;849;48.780;9.216;2022-07-30T05:25:28;19.80;99.90
1704;DHT22;849;48.780;9.216;2022-07-30T05:27:54;20.00;99.90
1704;DHT22;849;48.780;9.216;2022-07-30T05:30:21;20.10;99.90
1704;DHT22;849;48.780;9.216;2022-07-30T05:32:47;20.10;99.90
1704;DHT22;849;48.780;9.216;2022-07-30T05:35:12;20.00;99.90
1704;DHT22;849;48.780;9.216;2022-07-30T05:37:38;20.20;99.90
1704;DHT22;849;48.780;9.216;2022-07-30T05:40:04;20.30;99.90
1704;DHT22;849;48.780;9.216;2022-07-30T05:42:30;20.30;99.90
1704;DHT22;849;48.780;9.216;2022-07-30T05:44:56;20.30;99.90
1704;DHT22;849;48.780;9.216;2022-07-30T05:47:21;20.40;99.90
1704;DHT22;849;48.780;9.216;2022-07-30T05:49:47;20.40;99.90
1704;DHT22;849;48.780;9.216;2022-07-30T05:52:14;20.30;99.90
1704;DHT22;849;48.780;9.216;2022-07-30T05:54:39;20.40;99.90
1704;DHT22;849;48.780;9.216;2022-07-30T05:57:05;20.50;99.90
1704;DHT22;849;48.780;9.216;2022-07-30T05:59:31;20.80;99.90
1704;DHT22;849;48.780;9.216;2022-07-30T06:01:56;20.70;99.90
1704;DHT22;849;48.780;9.216;2022-07-30T06:04:22;20.60;99.90
1704;DHT22;849;48.780;9.216;2022-07-30T06:06:48;20.70;99.90
1704;DHT22;849;48.780;9.216;2022-07-30T06:09:14;20.80;99.90
1704;DHT22;849;48.780;9.216;2022-07-30T06:11:39;21.20;99.90
1704;DHT22;849;48.780;9.216;2022-07-30T06:14:05;21.00;99.90
1704;DHT22;849;48.780;9.216;2022-07-30T06:16:31;21.10;99.90
1704;DHT22;849;48.780;9.216;2022-07-30T06:18:56;20.90;99.90
1704;DHT22;849;48.780;9.216;2022-07-30T06:21:22;21.10;99.90
1704;DHT22;849;48.780;9.216;2022-07-30T06:23:48;20.90;99.90
1704;DHT22;849;48.780;9.216;2022-07-30T06:26:13;21.20;99.90
1704;DHT22;849;48.780;9.216;2022-07-30T06:28:39;21.50;99.90
1704;DHT22;849;48.780;9.216;2022-07-30T06:31:06;21.60;99.90
1704;DHT22;849;48.780;9.216;2022-07-30T06:33:32;21.50;99.90
1704;DHT22;849;48.780;9.216;2022-07-30T06:35:58;21.50;99.90
1704;DHT22;849;48.780;9.216;2022-07-30T06:38:23;21.40;99.90
1704;DHT22;849;48.780;9.216;2022-07-30T06:40:49;21.20;99.90
1704;DHT22;849;48.780;9.216;2022-07-30T06:43:15;21.10;99.90
1704;DHT22;849;48.780;9.216;2022-07-30T06:45:40;21.30;99.90
1704;DHT22;849;48.780;9.216;2022-07-30T06:48:06;21.50;99.90
1704;DHT22;849;48.780;9.216;2022-07-30T06:50:32;21.80;99.90
1704;DHT22;849;48.780;9.216;2022-07-30T06:52:59;22.00;99.90
1704;DHT22;849;48.780;9.216;2022-07-30T06:55:25;22.20;99.90
1704;DHT22;849;48.780;9.216;2022-07-30T06:57:50;22.00;99.90
1704;DHT22;849;48.780;9.216;2022-07-30T07:00:16;22.20;99.90
1704;DHT22;849;48.780;9.216;2022-07-30T07:02:42;22.20;99.90
1704;DHT22;849;48.780;9.216;2022-07-30T07:05:08;21.70;99.90
1704;DHT22;849;48.780;9.216;2022-07-30T07:07:34;21.60;99.90
1704;DHT22;849;48.780;9.216;2022-07-30T07:10:00;21.80;99.90
1704;DHT22;849;48.780;9.216;2022-07-30T07:12:26;22.00;99.90
1704;DHT22;849;48.780;9.216;2022-07-30T07:14:51;22.00;99.90
1704;DHT22;849;48.780;9.216;2022-07-30T07:17:17;22.10;99.90
1704;DHT22;849;48.780;9.216;2022-07-30T07:19:43;22.20;99.90
1704;DHT22;849;48.780;9.216;2022-07-30T07:22:08;22.20;99.80
1704;DHT22;849;48.780;9.216;2022-07-30T07:24:34;22.00;98.20
1704;DHT22;849;48.780;9.216;2022-07-30T07:26:59;22.10;98.20
1704;DHT22;849;48.780;9.216;2022-07-30T07:29:25;22.20;98.00
1704;DHT22;849;48.780;9.216;2022-07-30T07:31:51;22.20;97.00
1704;DHT22;849;48.780;9.216;2022-07-30T07:34:16;22.30;97.20
1704;DHT22;849;48.780;9.216;2022-07-30T07:36:42;22.40;95.90
1704;DHT22;849;48.780;9.216;2022-07-30T07:39:08;22.20;96.80
1704;DHT22;849;48.780;9.216;2022-07-30T07:41:36;22.20;96.70
1704;DHT22;849;48.780;9.216;2022-07-30T07:44:04;22.30;97.00
1704;DHT22;849;48.780;9.216;2022-07-30T07:46:30;22.70;97.20
1704;DHT22;849;48.780;9.216;2022-07-30T07:48:55;22.70;95.00
1704;DHT22;849;48.780;9.216;2022-07-30T07:51:21;22.80;93.50
1704;DHT22;849;48.780;9.216;2022-07-30T07:53:47;22.70;93.60
1704;DHT22;849;48.780;9.216;2022-07-30T07:56:13;22.60;94.10
1704;DHT22;849;48.780;9.216;2022-07-30T07:58:39;22.50;94.60
1704;DHT22;849;48.780;9.216;2022-07-30T08:01:05;22.80;92.60
1704;DHT22;849;48.780;9.216;2022-07-30T08:03:31;22.70;92.20
1704;DHT22;849;48.780;9.216;2022-07-30T08:05:56;22.80;92.80
1704;DHT22;849;48.780;9.216;2022-07-30T08:08:22;23.00;92.10
1704;DHT22;849;48.780;9.216;2022-07-30T08:10:48;23.00;90.80
1704;DHT22;849;48.780;9.216;2022-07-30T08:13:14;22.90;91.60
1704;DHT22;849;48.780;9.216;2022-07-30T08:15:40;23.00;91.40
1704;DHT22;849;48.780;9.216;2022-07-30T08:18:06;22.90;92.00
1704;DHT22;849;48.780;9.216;2022-07-30T08:20:33;23.10;90.80
1704;DHT22;849;48.780;9.216;2022-07-30T08:23:00;23.20;86.80
1704;DHT22;849;48.780;9.216;2022-07-30T08:25:26;23.40;85.10
1704;DHT22;849;48.780;9.216;2022-07-30T08:27:52;23.40;85.90
1704;DHT22;849;48.780;9.216;2022-07-30T08:30:19;23.30;88.00
1704;DHT22;849;48.780;9.216;2022-07-30T08:32:44;23.30;86.00
1704;DHT22;849;48.780;9.216;2022-07-30T08:35:10;23.20;85.00
1704;DHT22;849;48.780;9.216;2022-07-30T08:37:36;23.40;84.60
1704;DHT22;849;48.780;9.216;2022-07-30T08:40:03;23.30;81.90
1704;DHT22;849;48.780;9.216;2022-07-30T08:42:30;23.40;83.30
1704;DHT22;849;48.780;9.216;2022-07-30T08:44:59;23.50;82.20
1704;DHT22;849;48.780;9.216;2022-07-30T08:47:31;23.60;82.10
1704;DHT22;849;48.780;9.216;2022-07-30T08:49:58;23.50;82.50
1704;DHT22;849;48.780;9.216;2022-07-30T08:52:35;23.40;83.50
1704;DHT22;849;48.780;9.216;2022-07-30T08:55:02;23.60;84.10
1704;DHT22;849;48.780;9.216;2022-07-30T08:57:29;23.50;80.20
1704;DHT22;849;48.780;9.216;2022-07-30T08:59:59;23.30;81.70
1704;DHT22;849;48.780;9.216;2022-07-30T09:02:25;23.70;82.60
1704;DHT22;849;48.780;9.216;2022-07-30T09:04:51;23.70;77.90
1704;DHT22;849;48.780;9.216;2022-07-30T09:07:17;23.90;76.00
1704;DHT22;849;48.780;9.216;2022-07-30T09:09:43;24.10;74.00
1704;DHT22;849;48.780;9.216;2022-07-30T09:15:13;24.20;75.40
1704;DHT22;849;48.780;9.216;2022-07-30T09:18:01;24.50;78.40
1704;DHT22;849;48.780;9.216;2022-07-30T09:20:29;24.40;71.40
1704;DHT22;849;48.780;9.216;2022-07-30T09:22:58;24.20;72.50
1704;DHT22;849;48.780;9.216;2022-07-30T09:25:42;24.40;73.10
1704;DHT22;849;48.780;9.216;2022-07-30T09:28:09;24.50;70.30
1704;DHT22;849;48.780;9.216;2022-07-30T09:30:47;24.40;72.10
1704;DHT22;849;48.780;9.216;2022-07-30T09:33:14;24.60;72.20
1704;DHT22;849;48.780;9.216;2022-07-30T09:35:55;24.80;73.90
1704;DHT22;849;48.780;9.216;2022-07-30T09:38:21;25.30;72.80
1704;DHT22;849;48.780;9.216;2022-07-30T09:40:53;25.30;70.40
1704;DHT22;849;48.780;9.216;2022-07-30T09:43:19;25.30;69.80
1704;DHT22;849;48.780;9.216;2022-07-30T09:45:54;24.90;69.90
1704;DHT22;849;48.780;9.216;2022-07-30T09:48:23;24.60;68.90
1704;DHT22;849;48.780;9.216;2022-07-30T09:50:50;24.40;69.90
1704;DHT22;849;48.780;9.216;2022-07-30T09:53:17;24.20;71.10
1704;DHT22;849;48.780;9.216;2022-07-30T09:55:43;24.20;70.90
1704;DHT22;849;48.780;9.216;2022-07-30T09:58:10;24.40;70.00
1704;DHT22;849;48.780;9.216;2022-07-30T10:00:37;24.50;70.10
1704;DHT22;849;48.780;9.216;2022-07-30T10:03:17;24.50;69.40
1704;DHT22;849;48.780;9.216;2022-07-30T10:05:53;24.70;66.90
1704;DHT22;849;48.780;9.216;2022-07-30T10:08:20;24.80;65.90
1704;DHT22;849;48.780;9.216;2022-07-30T10:11:02;24.80;65.70
1704;DHT22;849;48.780;9.216;2022-07-30T10:13:27;24.50;66.50
1704;DHT22;849;48.780;9.216;2022-07-30T10:15:53;24.80;65.70
1704;DHT22;849;48.780;9.216;2022-07-30T10:18:19;24.60;64.70
1704;DHT22;849;48.780;9.216;2022-07-30T10:20:46;24.90;65.70
1704;DHT22;849;48.780;9.216;2022-07-30T10:23:12;25.10;65.40
1704;DHT22;849;48.780;9.216;2022-07-30T10:25:38;25.20;64.30
1704;DHT22;849;48.780;9.216;2022-07-30T10:28:04;25.10;62.80
1704;DHT22;849;48.780;9.216;2022-07-30T10:30:30;25.10;64.50
1704;DHT22;849;48.780;9.216;2022-07-30T10:32:58;25.10;62.40
1704;DHT22;849;48.780;9.216;2022-07-30T10:35:23;25.20;60.80
1704;DHT22;849;48.780;9.216;2022-07-30T10:37:50;25.20;61.80
1704;DHT22;849;48.780;9.216;2022-07-30T10:40:26;25.50;62.60
1704;DHT22;849;48.780;9.216;2022-07-30T10:48:45;25.80;60.40
1704;DHT22;849;48.780;9.216;2022-07-30T10:51:11;25.80;62.60
1704;DHT22;849;48.780;9.216;2022-07-30T10:53:39;25.60;61.20
1704;DHT22;849;48.780;9.216;2022-07-30T10:59:05;26.40;58.70
1704;DHT22;849;48.780;9.216;2022-07-30T11:04:22;26.10;58.90
1704;DHT22;849;48.780;9.216;2022-07-30T11:06:49;26.40;58.90
1704;DHT22;849;48.780;9.216;2022-07-30T11:09:38;26.30;59.60
1704;DHT22;849;48.780;9.216;2022-07-30T11:12:05;26.20;60.90
1704;DHT22;849;48.780;9.216;2022-07-30T11:17:21;26.20;58.80
1704;DHT22;849;48.780;9.216;2022-07-30T11:22:36;26.30;58.80
1704;DHT22;849;48.780;9.216;2022-07-30T11:25:12;26.20;59.20
1704;DHT22;849;48.780;9.216;2022-07-30T11:27:56;26.20;59.70
1704;DHT22;849;48.780;9.216;2022-07-30T11:38:08;26.20;57.60
1704;DHT22;849;48.780;9.216;2022-07-30T11:43:17;26.00;58.90
1704;DHT22;849;48.780;9.216;2022-07-30T11:45:44;26.30;59.30
1704;DHT22;849;48.780;9.216;2022-07-30T11:48:13;26.30;56.50
1704;DHT22;849;48.780;9.216;2022-07-30T11:50:39;26.20;56.60
1704;DHT22;849;48.780;9.216;2022-07-30T11:53:08;26.10;56.60
1704;DHT22;849;48.780;9.216;2022-07-30T11:55:42;26.10;56.60
1704;DHT22;849;48.780;9.216;2022-07-30T11:58:31;26.00;55.60
1704;DHT22;849;48.780;9.216;2022-07-30T12:01:05;26.20;56.30
1704;DHT22;849;48.780;9.216;2022-07-30T12:03:39;26.30;55.50
1704;DHT22;849;48.780;9.216;2022-07-30T12:06:06;26.40;58.40
1704;DHT22;849;48.780;9.216;2022-07-30T12:08:43;26.80;57.70
1704;DHT22;849;48.780;9.216;2022-07-30T12:11:10;26.90;57.50
1704;DHT22;849;48.780;9.216;2022-07-30T12:13:37;27.30;56.90
1704;DHT22;849;48.780;9.216;2022-07-30T12:16:08;27.20;55.00
1704;DHT22;849;48.780;9.216;2022-07-30T12:18:34;27.10;55.80
1704;DHT22;849;48.780;9.216;2022-07-30T12:21:03;26.70;54.90
1704;DHT22;849;48.780;9.216;2022-07-30T12:23:30;26.50;55.70
1704;DHT22;849;48.780;9.216;2022-07-30T12:25:57;26.70;55.10
1704;DHT22;849;48.780;9.216;2022-07-30T12:28:30;26.60;54.60
1704;DHT22;849;48.780;9.216;2022-07-30T12:30:58;26.70;54.50
1704;DHT22;849;48.780;9.216;2022-07-30T12:33:25;26.80;56.00
1704;DHT22;849;48.780;9.216;2022-07-30T12:35:56;26.90;54.70
1704;DHT22;849;48.780;9.216;2022-07-30T12:38:23;26.70;54.80
1704;DHT22;849;48.780;9.216;2022-07-30T12:40:54;26.70;54.70
1704;DHT22;849;48.780;9.216;2022-07-30T12:43:46;26.60;54.60
1704;DHT22;849;48.780;9.216;2022-07-30T12:46:23;26.50;54.30
1704;DHT22;849;48.780;9.216;2022-07-30T12:48:57;26.70;53.10
1704;DHT22;849;48.780;9.216;2022-07-30T12:51:27;26.70;53.10
1704;DHT22;849;48.780;9.216;2022-07-30T12:53:54;27.00;53.40
1704;DHT22;849;48.780;9.216;2022-07-30T12:56:26;27.00;52.90
1704;DHT22;849;48.780;9.216;2022-07-30T12:58:52;27.30;53.80
1704;DHT22;849;48.780;9.216;2022-07-30T13:01:18;27.70;52.50
1704;DHT22;849;48.780;9.216;2022-07-30T13:03:44;27.50;51.70
1704;DHT22;849;48.780;9.216;2022-07-30T13:06:12;27.50;52.80
1704;DHT22;849;48.780;9.216;2022-07-30T13:09:05;27.60;53.00
1704;DHT22;849;48.780;9.216;2022-07-30T13:11:43;27.60;51.70
1704;DHT22;849;48.780;9.216;2022-07-30T13:14:11;27.20;52.20
1704;DHT22;849;48.780;9.216;2022-07-30T13:16:39;27.10;52.30
1704;DHT22;849;48.780;9.216;2022-07-30T13:19:09;27.60;55.70
1704;DHT22;849;48.780;9.216;2022-07-30T13:21:38;27.90;54.30
1704;DHT22;849;48.780;9.216;2022-07-30T13:24:05;27.70;51.60
1704;DHT22;849;48.780;9.216;2022-07-30T13:26:31;27.60;52.70
1704;DHT22;849;48.780;9.216;2022-07-30T13:28:58;27.60;53.00
1704;DHT22;849;48.780;9.216;2022-07-30T13:31:24;27.70;52.70
1704;DHT22;849;48.780;9.216;2022-07-30T13:33:50;28.00;53.50
1704;DHT22;849;48.780;9.216;2022-07-30T13:36:16;28.20;51.60
1704;DHT22;849;48.780;9.216;2022-07-30T13:38:43;27.90;51.90
1704;DHT22;849;48.780;9.216;2022-07-30T13:41:09;28.00;53.60
1704;DHT22;849;48.780;9.216;2022-07-30T13:43:34;28.00;51.60
1704;DHT22;849;48.780;9.216;2022-07-30T13:46:02;28.10;52.30
1704;DHT22;849;48.780;9.216;2022-07-30T13:48:28;28.30;51.90
1704;DHT22;849;48.780;9.216;2022-07-30T13:50:54;27.80;51.50
1704;DHT22;849;48.780;9.216;2022-07-30T13:53:20;28.00;51.90
1704;DHT22;849;48.780;9.216;2022-07-30T13:55:45;28.10;52.60
1704;DHT22;849;48.780;9.216;2022-07-30T13:58:11;28.20;52.70
1704;DHT22;849;48.780;9.216;2022-07-30T14:00:38;28.20;51.60
1704;DHT22;849;48.780;9.216;2022-07-30T14:03:08;28.60;52.30
1704;DHT22;849;48.780;9.216;2022-07-30T14:05:36;28.50;53.00
1704;DHT22;849;48.780;9.216;2022-07-30T14:08:03;28.90;52.70
1704;DHT22;849;48.780;9.216;2022-07-30T14:10:29;28.70;50.50
1704;DHT22;849;48.780;9.216;2022-07-30T14:12:55;28.50;51.00
1704;DHT22;849;48.780;9.216;2022-07-30T14:15:22;28.30;52.00
1704;DHT22;849;48.780;9.216;2022-07-30T14:17:49;28.20;51.30
1704;DHT22;849;48.780;9.216;2022-07-30T14:20:15;28.20;51.50
1704;DHT22;849;48.780;9.216;2022-07-30T14:22:41;28.40;51.40
1704;DHT22;849;48.780;9.216;2022-07-30T14:25:07;28.60;51.00
1704;DHT22;849;48.780;9.216;2022-07-30T14:27:33;28.40;51.50
1704;DHT22;849;48.780;9.216;2022-07-30T14:29:59;28.50;52.20
1704;DHT22;849;48.780;9.216;2022-07-30T14:32:25;28.20;51.40
1704;DHT22;849;48.780;9.216;2022-07-30T14:34:51;28.40;53.00
1704;DHT22;849;48.780;9.216;2022-07-30T14:37:16;29.00;50.80
1704;DHT22;849;48.780;9.216;2022-07-30T14:39:42;29.00;51.10
1704;DHT22;849;48.780;9.216;2022-07-30T14:42:08;28.70;50.90
1704;DHT22;849;48.780;9.216;2022-07-30T14:44:33;29.00;52.80
1704;DHT22;849;48.780;9.216;2022-07-30T14:46:59;29.40;51.60
1704;DHT22;849;48.780;9.216;2022-07-30T14:49:25;29.30;50.00
1704;DHT22;849;48.780;9.216;2022-07-30T14:51:51;29.50;50.60
1704;DHT22;849;48.780;9.216;2022-07-30T14:54:17;29.70;49.90
1704;DHT22;849;48.780;9.216;2022-07-30T14:56:42;29.50;49.80
1704;DHT22;849;48.780;9.216;2022-07-30T14:59:08;29.40;50.20
1704;DHT22;849;48.780;9.216;2022-07-30T15:01:34;29.60;50.50
1704;DHT22;849;48.780;9.216;2022-07-30T15:04:00;30.10;51.30
1704;DHT22;849;48.780;9.216;2022-07-30T15:06:26;29.80;49.70
1704;DHT22;849;48.780;9.216;2022-07-30T15:08:51;29.90;50.00
1704;DHT22;849;48.780;9.216;2022-07-30T15:11:18;30.20;48.40
1704;DHT22;849;48.780;9.216;2022-07-30T15:13:43;30.30;48.80
1704;DHT22;849;48.780;9.216;2022-07-30T15:16:09;30.30;47.90
1704;DHT22;849;48.780;9.216;2022-07-30T15:18:35;30.60;49.00
1704;DHT22;849;48.780;9.216;2022-07-30T15:21:01;30.50;47.70
1704;DHT22;849;48.780;9.216;2022-07-30T15:23:27;30.30;49.40
1704;DHT22;849;48.780;9.216;2022-07-30T15:25:53;30.40;48.20
1704;DHT22;849;48.780;9.216;2022-07-30T15:28:18;29.80;47.70
1704;DHT22;849;48.780;9.216;2022-07-30T15:30:44;29.60;48.50
1704;DHT22;849;48.780;9.216;2022-07-30T15:33:10;30.00;49.60
1704;DHT22;849;48.780;9.216;2022-07-30T15:35:36;30.50;47.80
1704;DHT22;849;48.780;9.216;2022-07-30T15:38:02;31.30;47.80
1704;DHT22;849;48.780;9.216;2022-07-30T15:40:28;31.20;46.30
1704;DHT22;849;48.780;9.216;2022-07-30T15:42:54;31.80;46.80
1704;DHT22;849;48.780;9.216;2022-07-30T15:45:20;33.20;44.80
1704;DHT22;849;48.780;9.216;2022-07-30T15:47:47;34.40;42.30
1704;DHT22;849;48.780;9.216;2022-07-30T15:50:13;35.10;41.90
1704;DHT22;849;48.780;9.216;2022-07-30T15:52:41;34.60;41.70
1704;DHT22;849;48.780;9.216;2022-07-30T15:55:07;34.00;42.50
1704;DHT22;849;48.780;9.216;2022-07-30T15:57:32;34.30;44.30
1704;DHT22;849;48.780;9.216;2022-07-30T15:59:59;34.90;43.20
1704;DHT22;849;48.780;9.216;2022-07-30T16:02:25;34.60;41.90
1704;DHT22;849;48.780;9.216;2022-07-30T16:04:50;33.80;43.20
1704;DHT22;849;48.780;9.216;2022-07-30T16:07:16;33.10;43.00
1704;DHT22;849;48.780;9.216;2022-07-30T16:09:42;31.80;44.20
1704;DHT22;849;48.780;9.216;2022-07-30T16:12:08;30.80;45.40
1704;DHT22;849;48.780;9.216;2022-07-30T16:14:34;30.50;46.10
1704;DHT22;849;48.780;9.216;2022-07-30T16:17:00;30.70;46.20
1704;DHT22;849;48.780;9.216;2022-07-30T16:19:26;31.50;45.20
1704;DHT22;849;48.780;9.216;2022-07-30T16:21:52;31.70;44.30
1704;DHT22;849;48.780;9.216;2022-07-30T16:24:18;31.70;44.10
1704;DHT22;849;48.780;9.216;2022-07-30T16:26:44;31.40;44.40
1704;DHT22;849;48.780;9.216;2022-07-30T16:29:10;31.30;44.90
1704;DHT22;849;48.780;9.216;2022-07-30T16:31:36;30.70;45.60
1704;DHT22;849;48.780;9.216;2022-07-30T16:34:04;31.00;45.60
1704;DHT22;849;48.780;9.216;2022-07-30T16:36:30;31.30;46.90
1704;DHT22;849;48.780;9.216;2022-07-30T16:38:55;32.60;44.60
1704;DHT22;849;48.780;9.216;2022-07-30T16:41:21;34.30;42.80
1704;DHT22;849;48.780;9.216;2022-07-30T16:43:46;34.00;41.50
1704;DHT22;849;48.780;9.216;2022-07-30T16:46:12;34.90;41.80
1704;DHT22;849;48.780;9.216;2022-07-30T16:48:38;35.70;40.80
1704;DHT22;849;48.780;9.216;2022-07-30T16:51:05;36.50;40.10
1704;DHT22;849;48.780;9.216;2022-07-30T16:53:31;36.90;38.60
1704;DHT22;849;48.780;9.216;2022-07-30T16:55:56;35.00;40.90